Willow Hill, Illinois
Current Conditions -  °F | °C
As of 4:15 PM on Friday 24 Oct 2014 (Local Time) from KRSV Reporting Station
Clear Clear  
Wind Chill: 72°   Ceiling: Unl
Heat Index: 72°   Visibility: 10mi
Dew Point: 54°   Wind: 7mph
Humidity: 53%   Direction: 240°WSW
Pressure: 30.03"   Gusts: NA
Location:  39°N, 88.02°W
Report Text: KRSV 242115Z AUTO 24006KT 10SM CLR 22/12 A3003 RMK AO2 T02200120
Loading
Personal Weather Stations






























Interactive Weather Map
Tropical Storm Tracking
New forecast layout! Learn more

10-Day Weather Forecast

Advertisements
Track Severe Weather on mobile